Time;durP1;ratioP1;P1;durP2;ratioP2;P2;SDS_P1;SDS_P2;PMS_P1;PMS_P2;Temp;Humidity;BMP_temperature;BMP_pressure;BME280_temperature;BME280_humidity;BME280_pressure;Samples;Min_cycle;Max_cycle;Signal;HPM_P1;HPM_P2
2023/08/05 00:00:23;;;;;;;10.73;5.60;;;18.00;99.90;;;;;;4964178;28;20174;-86
2023/08/05 00:02:49;;;;;;;10.23;5.82;;;18.00;99.90;;;;;;4980175;28;20186;-86
2023/08/05 00:05:14;;;;;;;10.40;6.30;;;17.90;99.90;;;;;;4979879;28;20205;-86
2023/08/05 00:07:40;;;;;;;12.32;6.10;;;17.90;99.90;;;;;;4964110;28;20209;-87
2023/08/05 00:10:06;;;;;;;13.50;6.10;;;17.90;99.90;;;;;;4963716;28;20182;-86
2023/08/05 00:12:32;;;;;;;8.07;5.35;;;17.90;99.90;;;;;;4979889;28;20627;-87
2023/08/05 00:14:57;;;;;;;10.02;5.72;;;17.80;99.90;;;;;;4940891;29;20238;-87
2023/08/05 00:17:23;;;;;;;10.40;5.82;;;17.90;99.90;;;;;;4973321;28;20636;-86
2023/08/05 00:19:50;;;;;;;12.65;6.18;;;17.80;99.90;;;;;;4956920;29;20688;-86
2023/08/05 00:22:16;;;;;;;8.77;6.07;;;17.80;99.90;;;;;;4957135;29;20184;-85
2023/08/05 00:24:41;;;;;;;12.20;6.03;;;17.80;99.90;;;;;;4956890;29;20261;-86
2023/08/05 00:27:07;;;;;;;11.05;6.38;;;17.80;99.90;;;;;;4956872;29;20199;-84
2023/08/05 00:29:33;;;;;;;9.80;6.18;;;17.70;99.90;;;;;;4957156;29;20183;-85
2023/08/05 00:31:59;;;;;;;12.65;5.78;;;17.70;99.90;;;;;;4957050;29;20234;-84
2023/08/05 00:34:24;;;;;;;18.23;6.85;;;17.70;99.90;;;;;;4957000;29;20262;-84
2023/08/05 00:36:50;;;;;;;13.85;5.95;;;17.70;99.90;;;;;;4940970;29;20554;-85
2023/08/05 00:39:15;;;;;;;12.52;5.85;;;17.60;99.90;;;;;;4941188;29;20654;-85
2023/08/05 00:41:41;;;;;;;14.07;6.47;;;17.60;99.90;;;;;;4940928;29;20192;-85
2023/08/05 00:44:07;;;;;;;13.00;6.00;;;17.60;99.90;;;;;;4940614;29;20186;-85
2023/08/05 00:46:32;;;;;;;13.05;6.28;;;17.60;99.90;;;;;;4939493;29;20211;-86
2023/08/05 00:48:58;;;;;;;11.05;6.55;;;17.60;99.90;;;;;;4956935;29;20187;-85
2023/08/05 00:51:25;;;;;;;10.07;5.72;;;17.60;99.90;;;;;;4957827;29;20211;-85
2023/08/05 00:53:51;;;;;;;10.13;5.90;;;17.60;99.90;;;;;;4957862;29;20669;-86
2023/08/05 00:56:16;;;;;;;10.23;5.53;;;17.50;99.90;;;;;;4957637;29;20266;-86
2023/08/05 00:58:43;;;;;;;10.15;5.65;;;17.50;99.90;;;;;;4957768;29;20190;-85
2023/08/05 01:01:09;;;;;;;14.23;5.68;;;17.50;99.90;;;;;;4940166;29;20645;-85
2023/08/05 01:03:36;;;;;;;9.77;5.97;;;17.50;99.90;;;;;;4957646;29;20187;-86
2023/08/05 01:06:03;;;;;;;11.45;5.13;;;17.50;99.90;;;;;;4957444;29;20211;-87
2023/08/05 01:08:30;;;;;;;8.73;5.43;;;17.50;99.90;;;;;;4957671;29;20218;-86
2023/08/05 01:10:56;;;;;;;10.50;5.78;;;17.50;99.90;;;;;;4956189;29;20183;-87
2023/08/05 01:13:22;;;;;;;11.57;5.85;;;17.50;99.90;;;;;;4955888;29;20195;-87
2023/08/05 01:15:48;;;;;;;8.40;5.25;;;17.60;99.90;;;;;;4971560;28;20726;-86
2023/08/05 01:18:15;;;;;;;9.50;5.10;;;17.60;99.90;;;;;;4959419;28;20227;-85
2023/08/05 01:20:48;;;;;;;7.63;5.55;;;17.60;99.90;;;;;;4959663;28;20183;-85
2023/08/05 01:23:21;;;;;;;10.18;5.38;;;17.70;99.90;;;;;;4976718;28;20175;-85
2023/08/05 01:25:46;;;;;;;8.88;4.25;;;17.70;99.90;;;;;;4976499;28;20198;-85
2023/08/05 01:28:14;;;;;;;7.13;5.07;;;17.80;99.90;;;;;;4959010;28;20230;-85
2023/08/05 01:30:42;;;;;;;6.88;4.47;;;17.80;99.90;;;;;;4976690;28;20533;-85
2023/08/05 01:33:08;;;;;;;8.32;4.60;;;17.90;99.90;;;;;;4975428;28;20258;-86
2023/08/05 01:35:34;;;;;;;8.30;4.50;;;17.90;99.90;;;;;;4982680;28;20210;-85
2023/08/05 01:37:59;;;;;;;12.25;4.80;;;17.90;99.90;;;;;;4987315;28;20182;-85
2023/08/05 01:40:28;;;;;;;9.82;4.18;;;18.00;99.90;;;;;;4988171;28;20199;-85
2023/08/05 01:42:57;;;;;;;6.10;3.97;;;18.00;99.90;;;;;;4971727;28;20636;-85
2023/08/05 01:45:23;;;;;;;8.77;4.22;;;18.00;99.90;;;;;;4986655;28;20210;-85
2023/08/05 01:47:49;;;;;;;6.85;4.25;;;18.00;99.90;;;;;;4985055;28;20186;-85
2023/08/05 01:50:14;;;;;;;8.93;4.10;;;18.10;99.90;;;;;;4985328;28;20181;-86
2023/08/05 01:52:42;;;;;;;6.40;4.68;;;18.10;99.90;;;;;;4948489;28;20183;-85
2023/08/05 01:55:07;;;;;;;7.60;4.60;;;18.20;99.90;;;;;;4978041;28;20186;-88
2023/08/05 01:57:33;;;;;;;7.25;3.72;;;18.20;99.90;;;;;;4943180;28;20181;-85
2023/08/05 01:59:59;;;;;;;5.93;3.75;;;18.30;99.90;;;;;;4976069;28;20182;-85
2023/08/05 02:02:24;;;;;;;9.27;4.20;;;18.30;99.90;;;;;;4958323;28;20189;-85
2023/08/05 02:04:50;;;;;;;7.57;4.28;;;18.30;99.90;;;;;;4960222;28;20183;-85
2023/08/05 02:07:16;;;;;;;8.10;4.70;;;18.30;99.90;;;;;;4963032;28;20183;-86
2023/08/05 02:09:41;;;;;;;7.75;4.32;;;18.20;99.90;;;;;;4960673;28;20650;-86
2023/08/05 02:12:07;;;;;;;6.60;4.28;;;18.30;99.90;;;;;;4975404;28;20209;-85
2023/08/05 02:14:33;;;;;;;8.02;4.38;;;18.30;99.90;;;;;;4957976;28;20234;-85
2023/08/05 02:16:58;;;;;;;8.05;4.00;;;18.30;99.90;;;;;;4959072;28;20185;-85
2023/08/05 02:19:24;;;;;;;7.18;4.28;;;18.30;99.90;;;;;;4962159;28;20178;-85
2023/08/05 02:21:50;;;;;;;6.10;3.90;;;18.30;99.90;;;;;;4976373;28;20190;-86
2023/08/05 02:24:15;;;;;;;4.55;3.25;;;18.30;99.90;;;;;;4958540;28;20210;-87
2023/08/05 02:26:44;;;;;;;5.30;3.78;;;18.30;99.90;;;;;;4958428;28;20667;-86
2023/08/05 02:29:09;;;;;;;7.05;4.15;;;18.20;99.90;;;;;;4975759;28;20233;-86
2023/08/05 02:31:35;;;;;;;6.55;3.67;;;18.10;99.90;;;;;;4957602;28;20187;-86
2023/08/05 02:34:01;;;;;;;5.03;3.80;;;18.10;99.90;;;;;;4958050;28;20230;-87
2023/08/05 02:36:26;;;;;;;6.20;3.45;;;18.20;99.90;;;;;;4974823;28;20635;-86
2023/08/05 02:38:52;;;;;;;6.57;3.92;;;18.10;99.90;;;;;;4975387;28;20619;-86
2023/08/05 02:41:18;;;;;;;4.47;3.15;;;18.20;99.90;;;;;;4973619;28;20236;-86
2023/08/05 02:43:43;;;;;;;4.47;3.47;;;18.10;99.90;;;;;;4957753;28;20187;-86
2023/08/05 02:46:09;;;;;;;6.75;4.07;;;18.10;99.90;;;;;;4957774;28;20198;-86
2023/08/05 02:48:34;;;;;;;7.57;3.53;;;18.10;99.90;;;;;;4957797;28;20229;-86
2023/08/05 02:51:00;;;;;;;5.60;3.50;;;18.10;99.90;;;;;;4957822;28;20194;-85
2023/08/05 02:53:26;;;;;;;5.38;3.53;;;18.00;99.90;;;;;;4957485;28;20208;-86
2023/08/05 02:55:51;;;;;;;7.60;3.65;;;18.00;99.90;;;;;;4974992;28;20220;-86
2023/08/05 02:58:18;;;;;;;5.32;3.03;;;18.00;99.90;;;;;;4973528;28;20193;-86
2023/08/05 03:00:43;;;;;;;7.18;3.58;;;17.90;99.90;;;;;;4957794;28;20182;-86
2023/08/05 03:03:10;;;;;;;6.65;3.17;;;17.90;99.90;;;;;;4957727;28;20532;-87
2023/08/05 03:05:36;;;;;;;4.63;2.88;;;17.90;99.90;;;;;;4974776;28;20285;-86
2023/08/05 03:08:02;;;;;;;5.40;3.70;;;17.90;99.90;;;;;;4941554;28;20222;-86
2023/08/05 03:10:28;;;;;;;5.03;3.05;;;17.90;99.90;;;;;;4973485;28;20543;-86
2023/08/05 03:12:54;;;;;;;5.38;3.17;;;17.90;99.90;;;;;;4957285;28;20183;-85
2023/08/05 03:15:20;;;;;;;6.60;3.45;;;17.90;99.90;;;;;;4974603;28;20679;-87
2023/08/05 03:17:46;;;;;;;3.05;2.60;;;17.90;99.90;;;;;;4957436;28;20248;-86
2023/08/05 03:20:29;;;;;;;5.07;3.53;;;17.90;99.90;;;;;;4957374;28;20628;-85
2023/08/05 03:22:55;;;;;;;4.57;2.83;;;17.90;99.90;;;;;;4974839;28;20166;-86
2023/08/05 03:25:22;;;;;;;5.47;3.45;;;17.90;99.90;;;;;;4957300;28;20210;-85
2023/08/05 03:27:51;;;;;;;5.53;3.45;;;17.90;99.90;;;;;;4942811;28;20209;-88
2023/08/05 03:30:18;;;;;;;7.57;3.53;;;18.00;99.90;;;;;;4974648;28;20248;-85
2023/08/05 03:32:46;;;;;;;3.97;3.08;;;18.00;99.90;;;;;;4975795;28;20175;-85
2023/08/05 03:35:11;;;;;;;4.40;3.00;;;18.00;99.90;;;;;;4975978;28;20264;-85
2023/08/05 03:37:37;;;;;;;8.85;3.90;;;18.00;99.90;;;;;;4942846;28;20571;-84
2023/08/05 03:40:03;;;;;;;5.85;3.08;;;18.00;99.90;;;;;;4965474;28;20198;-84
2023/08/05 03:42:28;;;;;;;6.25;3.03;;;18.10;99.90;;;;;;4966190;28;20194;-86
2023/08/05 03:44:54;;;;;;;5.15;3.10;;;18.10;99.90;;;;;;4981980;28;20166;-85
2023/08/05 03:47:20;;;;;;;5.78;2.72;;;18.20;99.90;;;;;;4966257;28;20167;-83
2023/08/05 03:49:46;;;;;;;6.03;3.17;;;18.20;99.90;;;;;;4972443;28;20182;-85
2023/08/05 03:52:12;;;;;;;4.47;2.80;;;18.30;99.90;;;;;;4976109;28;20189;-85
2023/08/05 03:54:38;;;;;;;7.80;2.75;;;18.30;99.90;;;;;;4975663;28;20183;-85
2023/08/05 03:57:08;;;;;;;3.55;2.80;;;18.30;99.90;;;;;;4987303;28;20168;-86
2023/08/05 03:59:36;;;;;;;5.60;2.92;;;18.30;99.90;;;;;;4952562;29;20187;-85
2023/08/05 04:02:03;;;;;;;4.75;3.20;;;18.30;99.90;;;;;;4969734;28;20183;-85
2023/08/05 04:04:28;;;;;;;4.55;3.08;;;18.30;99.90;;;;;;4975354;28;20183;-87
2023/08/05 04:06:54;;;;;;;9.43;2.95;;;18.40;99.90;;;;;;4954203;29;20218;-86
2023/08/05 04:09:20;;;;;;;5.20;3.05;;;18.40;99.90;;;;;;4955124;29;20190;-87
2023/08/05 04:11:48;;;;;;;4.38;2.50;;;18.40;99.90;;;;;;4921809;29;20186;-86
2023/08/05 04:14:16;;;;;;;4.38;3.28;;;18.40;99.90;;;;;;4937438;29;20250;-85
2023/08/05 04:16:42;;;;;;;5.28;2.55;;;18.40;99.90;;;;;;4955655;29;20226;-86
2023/08/05 04:19:08;;;;;;;3.97;2.60;;;18.50;99.90;;;;;;4922785;29;20278;-87
2023/08/05 04:21:40;;;;;;;3.20;2.45;;;18.50;99.90;;;;;;4956109;28;20175;-88
2023/08/05 04:24:09;;;;;;;5.10;2.47;;;18.50;99.90;;;;;;4926169;29;20188;-90
2023/08/05 04:26:35;;;;;;;6.63;3.83;;;18.60;99.90;;;;;;4956447;29;20237;-86
2023/08/05 04:29:02;;;;;;;5.38;3.33;;;18.60;99.90;;;;;;4957791;29;20210;-86
2023/08/05 04:31:28;;;;;;;3.03;2.38;;;18.70;99.90;;;;;;4957998;29;20236;-86
2023/08/05 04:33:54;;;;;;;3.90;2.55;;;18.80;99.90;;;;;;4957767;29;20203;-87
2023/08/05 04:36:19;;;;;;;3.22;2.10;;;19.00;99.90;;;;;;4924900;29;20187;-86
2023/08/05 04:38:45;;;;;;;2.60;1.95;;;19.00;99.90;;;;;;4957238;29;20637;-86
2023/08/05 04:41:10;;;;;;;2.50;1.70;;;19.10;99.90;;;;;;4958192;29;20596;-86
2023/08/05 04:43:36;;;;;;;4.43;2.38;;;19.20;99.90;;;;;;4957745;29;20716;-86
2023/08/05 04:46:02;;;;;;;4.00;2.20;;;19.30;99.90;;;;;;4957963;29;20696;-84
2023/08/05 04:48:27;;;;;;;2.83;2.03;;;19.30;99.90;;;;;;4925035;29;20629;-84
2023/08/05 04:50:55;;;;;;;3.83;2.40;;;19.40;99.90;;;;;;4958702;29;20175;-84
2023/08/05 04:53:20;;;;;;;4.10;1.85;;;19.40;99.90;;;;;;4957385;29;20660;-85
2023/08/05 04:55:46;;;;;;;4.97;2.00;;;19.50;99.90;;;;;;4940965;29;20199;-85
2023/08/05 04:58:12;;;;;;;3.10;2.15;;;19.50;99.90;;;;;;4958512;29;20179;-84
2023/08/05 05:00:39;;;;;;;5.05;2.00;;;19.60;99.90;;;;;;4940824;29;20250;-85
2023/08/05 05:03:06;;;;;;;3.47;1.80;;;19.60;99.90;;;;;;4940996;29;20191;-84
2023/08/05 05:05:33;;;;;;;5.82;1.92;;;19.60;99.90;;;;;;4940603;29;20211;-84
2023/08/05 05:07:59;;;;;;;3.28;1.90;;;19.60;99.90;;;;;;4958180;29;20211;-84
2023/08/05 05:10:25;;;;;;;5.03;2.03;;;19.60;99.90;;;;;;4956068;29;20190;-86
2023/08/05 05:12:51;;;;;;;3.10;1.95;;;19.50;99.90;;;;;;4956788;28;20187;-87
2023/08/05 05:15:19;;;;;;;2.20;2.00;;;19.50;99.90;;;;;;4961252;28;20243;-86
2023/08/05 05:17:46;;;;;;;3.22;1.92;;;19.60;99.90;;;;;;4948017;28;20195;-85
2023/08/05 05:20:12;;;;;;;5.40;2.78;;;19.50;99.90;;;;;;4964672;28;20782;-85
2023/08/05 05:22:37;;;;;;;4.32;2.38;;;19.50;99.90;;;;;;4973076;28;20265;-82
2023/08/05 05:25:03;;;;;;;4.60;1.98;;;19.50;99.90;;;;;;4971914;28;20198;-87
2023/08/05 05:27:31;;;;;;;3.20;2.42;;;19.40;99.90;;;;;;4951830;28;20202;-87
2023/08/05 05:29:57;;;;;;;3.97;2.33;;;19.40;99.90;;;;;;4966167;28;20211;-87
2023/08/05 05:32:23;;;;;;;2.08;1.77;;;19.50;99.90;;;;;;4935613;29;20567;-88
2023/08/05 05:34:49;;;;;;;3.03;1.85;;;19.50;99.90;;;;;;4958816;28;20194;-87
2023/08/05 05:37:14;;;;;;;2.85;2.20;;;19.50;99.90;;;;;;4962962;28;20187;-87
2023/08/05 05:39:41;;;;;;;3.28;2.50;;;19.60;99.90;;;;;;4963459;28;20187;-82
2023/08/05 05:42:06;;;;;;;2.72;2.10;;;19.60;99.90;;;;;;4945126;29;20226;-85
2023/08/05 05:44:32;;;;;;;4.38;2.63;;;19.70;99.90;;;;;;4960630;28;20227;-84
2023/08/05 05:46:58;;;;;;;3.60;2.67;;;19.70;99.90;;;;;;4955770;29;20211;-85
2023/08/05 05:49:23;;;;;;;4.13;2.50;;;19.60;99.90;;;;;;4953350;29;20197;-85
2023/08/05 05:51:49;;;;;;;3.60;2.47;;;19.70;99.90;;;;;;4955464;29;20242;-85
2023/08/05 05:54:15;;;;;;;5.50;2.55;;;19.70;99.90;;;;;;4956932;29;20183;-86
2023/08/05 05:56:41;;;;;;;2.75;2.42;;;19.70;99.90;;;;;;4947543;29;20198;-87
2023/08/05 05:59:06;;;;;;;3.42;2.50;;;19.70;99.90;;;;;;4955477;29;20183;-87
2023/08/05 06:01:32;;;;;;;3.80;2.58;;;;;;;;;;4939319;29;20218;-89
2023/08/05 06:03:58;;;;;;;4.22;2.50;;;19.90;99.90;;;;;;4956308;29;20263;-86
2023/08/05 06:06:24;;;;;;;3.97;2.70;;;20.00;99.90;;;;;;4937347;29;20289;-85
2023/08/05 06:08:50;;;;;;;3.95;2.55;;;;;;;;;;4954999;29;20257;-84
2023/08/05 06:11:16;;;;;;;3.92;3.00;;;20.10;99.90;;;;;;4939447;29;20198;-85
2023/08/05 06:13:41;;;;;;;3.30;2.67;;;20.20;99.90;;;;;;4955499;29;20183;-85
2023/08/05 06:16:07;;;;;;;3.72;2.40;;;20.30;99.90;;;;;;4954798;29;20720;-85
2023/08/05 06:18:32;;;;;;;3.13;2.47;;;20.40;99.90;;;;;;4939454;29;20179;-86
2023/08/05 06:20:58;;;;;;;3.53;2.58;;;20.40;99.90;;;;;;4939457;29;20533;-85
2023/08/05 06:23:25;;;;;;;6.20;2.30;;;20.50;99.90;;;;;;4955454;29;20667;-85
2023/08/05 06:32:46;;;;;;;2.30;2.00;;;20.60;99.90;;;;;;4955522;29;20190;-85
2023/08/05 06:35:12;;;;;;;2.67;2.13;;;20.70;99.90;;;;;;4956240;29;20210;-84
2023/08/05 06:37:37;;;;;;;3.55;2.55;;;20.70;99.90;;;;;;4923314;29;20542;-87
2023/08/05 06:40:03;;;;;;;4.53;2.55;;;20.70;99.90;;;;;;4938655;29;20175;-85
2023/08/05 06:42:29;;;;;;;3.42;2.75;;;20.70;99.90;;;;;;4956446;29;20214;-85
2023/08/05 06:44:55;;;;;;;5.53;2.00;;;20.70;99.90;;;;;;4955777;28;20206;-85
2023/08/05 06:47:22;;;;;;;3.42;2.80;;;20.70;99.90;;;;;;4956097;28;20258;-87
2023/08/05 06:49:50;;;;;;;5.68;2.58;;;20.70;99.90;;;;;;4938855;29;20180;-86
2023/08/05 06:52:15;;;;;;;5.65;2.67;;;20.60;99.90;;;;;;4938792;29;20617;-84
2023/08/05 06:54:41;;;;;;;3.33;2.60;;;20.60;99.90;;;;;;4956190;29;20171;-85
2023/08/05 07:00:33;;;;;;;5.05;3.10;;;20.60;99.90;;;;;;4962026;28;20183;-85
2023/08/05 07:03:01;;;;;;;5.35;3.05;;;20.50;99.90;;;;;;4959893;28;20195;-90
2023/08/05 07:05:27;;;;;;;3.55;2.67;;;20.50;99.90;;;;;;4960602;28;20637;-84
2023/08/05 07:07:52;;;;;;;4.57;2.92;;;20.50;99.90;;;;;;4958128;28;20269;-85
2023/08/05 07:10:18;;;;;;;6.07;2.90;;;20.50;99.90;;;;;;4942478;28;20551;-85
2023/08/05 07:12:44;;;;;;;7.32;3.50;;;20.50;99.90;;;;;;4926648;28;20182;-85
2023/08/05 07:16:18;;;;;;;4.45;2.58;;;20.40;99.90;;;;;;4956111;28;20297;-85
2023/08/05 07:18:43;;;;;;;4.40;3.05;;;20.40;99.90;;;;;;4975664;28;20203;-85
2023/08/05 07:21:09;;;;;;;5.95;3.22;;;20.40;99.90;;;;;;4973970;28;20183;-85
2023/08/05 07:24:12;;;;;;;5.97;3.10;;;20.40;99.90;;;;;;4974002;28;20186;-85
2023/08/05 07:26:37;;;;;;;3.22;2.72;;;20.30;99.90;;;;;;4989735;28;20218;-85
2023/08/05 07:29:03;;;;;;;4.80;3.28;;;20.30;99.90;;;;;;4973841;28;20187;-85
2023/08/05 07:31:29;;;;;;;3.47;3.15;;;20.30;99.90;;;;;;4972189;28;20538;-85
2023/08/05 07:34:04;;;;;;;5.15;3.03;;;20.30;99.90;;;;;;4990082;28;20698;-85
2023/08/05 07:39:52;;;;;;;5.78;3.08;;;20.00;99.90;;;;;;4976294;28;20182;-90
2023/08/05 07:42:22;;;;;;;7.22;3.67;;;19.90;99.90;;;;;;4940921;29;20199;-87
2023/08/05 07:44:51;;;;;;;9.25;3.92;;;19.70;99.90;;;;;;4947388;28;20633;-89
2023/08/05 07:47:16;;;;;;;7.03;3.20;;;19.40;99.90;;;;;;4942560;28;20203;-86
2023/08/05 07:49:42;;;;;;;4.50;2.97;;;19.20;99.90;;;;;;4965796;28;20589;-87
2023/08/05 07:52:08;;;;;;;5.65;3.47;;;19.10;99.90;;;;;;4947859;28;20188;-89
2023/08/05 07:54:34;;;;;;;3.30;3.00;;;19.00;99.90;;;;;;4960671;28;20230;-90
2023/08/05 07:57:00;;;;;;;5.75;3.03;;;18.90;99.90;;;;;;4959972;28;20186;-87
2023/08/05 07:59:27;;;;;;;4.03;2.88;;;18.70;99.90;;;;;;4951124;28;20179;-87
2023/08/05 08:01:54;;;;;;;4.13;3.30;;;18.70;99.90;;;;;;4937357;28;20182;-89
2023/08/05 08:04:20;;;;;;;4.50;3.00;;;18.60;99.90;;;;;;4964004;28;20201;-88
2023/08/05 08:06:47;;;;;;;3.08;2.40;;;18.70;99.90;;;;;;4985085;28;20664;-88
2023/08/05 08:09:13;;;;;;;6.05;3.45;;;18.50;99.90;;;;;;4962235;28;20241;-89
2023/08/05 08:11:40;;;;;;;2.90;2.20;;;18.70;99.90;;;;;;4981164;28;20187;-88
2023/08/05 08:14:05;;;;;;;5.63;2.30;;;18.40;99.90;;;;;;4966742;28;20179;-88
2023/08/05 08:16:34;;;;;;;5.75;2.88;;;18.50;99.90;;;;;;4963573;28;20627;-88
2023/08/05 08:19:02;;;;;;;6.72;3.55;;;18.40;99.90;;;;;;4963818;28;20184;-87
2023/08/05 08:21:28;;;;;;;5.15;2.42;;;18.40;99.90;;;;;;4934577;28;20246;-88
2023/08/05 08:23:55;;;;;;;6.55;2.85;;;18.40;99.90;;;;;;4948236;28;20179;-88
2023/08/05 08:26:21;;;;;;;6.05;3.17;;;18.40;99.90;;;;;;4940123;28;20691;-89
2023/08/05 08:28:47;;;;;;;6.80;2.78;;;;;;;;;;4966780;28;20188;-89
2023/08/05 08:31:13;;;;;;;4.47;3.08;;;18.50;99.90;;;;;;4973103;28;20211;-88
2023/08/05 08:33:41;;;;;;;4.55;2.75;;;18.50;99.90;;;;;;4949311;28;20641;-90
2023/08/05 08:36:07;;;;;;;5.15;2.92;;;;;;;;;;4927280;28;20180;-90
2023/08/05 08:38:33;;;;;;;6.53;2.97;;;18.50;99.90;;;;;;4964955;28;20220;-89
2023/08/05 08:40:59;;;;;;;7.10;3.85;;;;;;;;;;4945887;28;20191;-88
2023/08/05 08:43:30;;;;;;;5.32;3.38;;;18.60;99.90;;;;;;4969772;28;20179;-90
2023/08/05 08:46:00;;;;;;;4.45;3.15;;;20.60;99.90;;;;;;4962328;28;20222;-88
2023/08/05 08:48:32;;;;;;;3.80;2.80;;;18.60;99.90;;;;;;4960339;28;20178;-89
2023/08/05 08:50:58;;;;;;;5.55;3.40;;;18.90;99.90;;;;;;4947388;28;20187;-90
2023/08/05 08:53:24;;;;;;;4.45;3.05;;;;;;;;;;4962329;28;20182;-88
2023/08/05 08:55:51;;;;;;;7.70;3.63;;;18.70;99.90;;;;;;4970579;28;20216;-88
2023/08/05 08:58:17;;;;;;;9.00;3.47;;;19.10;99.90;;;;;;4952108;29;20183;-88
2023/08/05 09:00:43;;;;;;;3.92;3.13;;;;;;;;;;4938668;28;20193;-89
2023/08/05 09:03:10;;;;;;;6.88;3.50;;;18.70;99.90;;;;;;4966485;28;20182;-88
2023/08/05 09:05:45;;;;;;;4.32;3.35;;;18.70;99.90;;;;;;4943925;28;20222;-87
2023/08/05 09:08:11;;;;;;;6.38;3.28;;;18.80;99.90;;;;;;4960267;28;20182;-87
2023/08/05 09:10:37;;;;;;;4.22;2.80;;;18.80;99.90;;;;;;4965500;28;20286;-88
2023/08/05 09:13:04;;;;;;;5.55;3.17;;;19.10;99.90;;;;;;4944585;28;20179;-87
2023/08/05 09:15:36;;;;;;;7.50;3.25;;;18.70;99.90;;;;;;4963600;28;20278;-88
2023/08/05 09:18:04;;;;;;;5.40;3.28;;;;;;;;;;4947255;28;20235;-88
2023/08/05 09:20:33;;;;;;;6.45;3.20;;;;;;;;;;4968720;28;20569;-88
2023/08/05 09:23:01;;;;;;;4.50;2.88;;;18.90;99.90;;;;;;4965671;28;20186;-90
2023/08/05 09:25:29;;;;;;;5.13;2.95;;;18.90;99.90;;;;;;4964877;28;20198;-87
2023/08/05 09:27:59;;;;;;;4.40;3.10;;;;;;;;;;4944702;29;20282;-90
2023/08/05 09:30:26;;;;;;;7.63;2.90;;;;;;;;;;4946282;28;20193;-90
2023/08/05 09:32:54;;;;;;;5.15;2.95;;;18.90;99.90;;;;;;4966363;28;20645;-89
2023/08/05 09:35:21;;;;;;;4.50;3.20;;;;;;;;;;4932553;28;20175;-87
2023/08/05 09:37:49;;;;;;;5.25;2.70;;;18.80;99.90;;;;;;4963985;28;20205;-88
2023/08/05 09:40:16;;;;;;;3.85;2.85;;;;;;;;;;4965016;28;20314;-89
2023/08/05 09:42:45;;;;;;;9.88;2.80;;;18.90;99.90;;;;;;4956840;28;20187;-88
2023/08/05 09:45:12;;;;;;;5.63;2.85;;;;;;;;;;4967005;28;20178;-89
2023/08/05 09:47:39;;;;;;;4.38;3.00;;;;;;;;;;4975940;28;20238;-88
2023/08/05 09:50:08;;;;;;;4.82;3.20;;;18.90;99.90;;;;;;4964807;28;20187;-87
2023/08/05 09:52:34;;;;;;;5.43;2.97;;;;;;;;;;4965945;28;20213;-88
2023/08/05 09:55:07;;;;;;;3.55;2.92;;;18.80;99.90;;;;;;4964516;28;20647;-88
2023/08/05 09:57:33;;;;;;;3.10;2.25;;;;;;;;;;4965773;28;20171;-88
2023/08/05 10:00:00;;;;;;;5.13;3.45;;;19.00;99.90;;;;;;4985758;28;20179;-88
2023/08/05 10:02:27;;;;;;;4.47;3.38;;;;;;;;;;4964474;28;20175;-91
2023/08/05 10:04:54;;;;;;;4.47;3.05;;;19.00;99.90;;;;;;4984603;28;20187;-87
2023/08/05 10:07:24;;;;;;;6.15;3.88;;;19.10;99.90;;;;;;4982233;28;20209;-88
2023/08/05 10:09:50;;;;;;;3.60;2.90;;;;;;;;;;4965831;28;20270;-88
2023/08/05 10:12:28;;;;;;;7.68;4.45;;;19.10;99.90;;;;;;4983379;28;20180;-88
2023/08/05 10:14:57;;;;;;;5.32;4.18;;;19.10;99.90;;;;;;5076298;23;20353;-88
2023/08/05 10:17:23;;;;;;;8.18;4.30;;;;;;;;;;4978802;28;20214;-88
2023/08/05 10:19:55;;;;;;;8.30;5.20;;;19.10;99.90;;;;;;4990916;28;20182;-87
2023/08/05 10:22:23;;;;;;;6.80;4.65;;;19.10;99.90;;;;;;4990657;28;20198;-87
2023/08/05 10:24:57;;;;;;;4.03;3.60;;;19.00;99.90;;;;;;4997921;28;20667;-91
2023/08/05 10:27:43;;;;;;;6.50;3.85;;;19.10;99.90;;;;;;4983902;28;20210;-89
2023/08/05 10:30:16;;;;;;;7.45;4.78;;;19.30;99.90;;;;;;4978428;28;20253;-89
2023/08/05 10:32:56;;;;;;;6.00;3.90;;;19.10;99.90;;;;;;4975065;28;20209;-89
2023/08/05 10:35:30;;;;;;;4.57;3.53;;;19.10;99.90;;;;;;4989595;28;20193;-88
2023/08/05 10:38:20;;;;;;;5.57;3.55;;;19.10;99.90;;;;;;4989595;28;20178;-88
2023/08/05 10:41:01;;;;;;;5.53;3.72;;;19.00;99.90;;;;;;4958725;28;20178;-85
2023/08/05 10:43:28;;;;;;;8.00;4.25;;;19.00;99.90;;;;;;4972967;28;20175;-87
2023/08/05 10:45:54;;;;;;;6.55;3.92;;;;;;;;;;4978560;28;20205;-89
2023/08/05 10:48:20;;;;;;;6.20;4.00;;;;;;;;;;4990859;28;20646;-88
2023/08/05 10:50:49;;;;;;;7.45;3.92;;;19.20;99.90;;;;;;4989996;28;20189;-87
2023/08/05 10:53:15;;;;;;;5.03;3.58;;;;;;;;;;4974589;28;20632;-88
2023/08/05 10:55:49;;;;;;;5.57;3.58;;;19.10;99.90;;;;;;4941087;28;20194;-87
2023/08/05 10:58:15;;;;;;;7.75;3.53;;;19.10;99.90;;;;;;4989215;28;20630;-88
2023/08/05 11:00:42;;;;;;;4.65;3.85;;;19.20;99.90;;;;;;4990784;28;20186;-86
2023/08/05 11:03:30;;;;;;;8.25;4.30;;;19.30;99.90;;;;;;4989934;28;20208;-87
2023/08/05 11:06:00;;;;;;;6.32;4.45;;;19.30;99.90;;;;;;4990043;28;20206;-89
2023/08/05 11:08:26;;;;;;;5.60;4.25;;;19.00;99.90;;;;;;4976626;28;20210;-88
2023/08/05 11:10:52;;;;;;;7.03;4.75;;;;;;;;;;4975938;28;20175;-90
2023/08/05 11:13:18;;;;;;;5.60;4.53;;;20.30;99.90;;;;;;4941813;28;20186;-91
2023/08/05 11:16:09;;;;;;;6.50;4.15;;;19.40;99.90;;;;;;4957562;28;20241;-89
2023/08/05 11:18:35;;;;;;;7.35;5.07;;;19.50;99.90;;;;;;4974241;28;20210;-89
2023/08/05 11:21:04;;;;;;;6.65;4.47;;;19.50;99.90;;;;;;4961114;28;20185;-89
2023/08/05 11:23:30;;;;;;;7.10;4.95;;;;;;;;;;4949429;28;20175;-90
2023/08/05 11:26:00;;;;;;;8.02;4.65;;;19.80;99.90;;;;;;4957662;28;20234;-89
2023/08/05 11:28:26;;;;;;;8.20;4.43;;;;;;;;;;4956957;28;20189;-88
2023/08/05 11:30:53;;;;;;;6.07;4.78;;;;;;;;;;4957980;28;20588;-88
2023/08/05 11:33:20;;;;;;;5.72;4.60;;;;;;;;;;4959103;28;20186;-89
2023/08/05 11:35:47;;;;;;;7.22;5.13;;;20.30;99.90;;;;;;4976331;28;20611;-88
2023/08/05 11:38:17;;;;;;;10.25;5.20;;;20.40;99.90;;;;;;4991585;28;20182;-88
2023/08/05 11:40:55;;;;;;;7.97;4.90;;;20.50;99.90;;;;;;4959244;28;20217;-88
2023/08/05 11:43:23;;;;;;;11.13;4.40;;;20.60;99.90;;;;;;4975324;28;20301;-91
2023/08/05 11:45:50;;;;;;;6.88;5.18;;;20.60;99.90;;;;;;4959261;28;20321;-88
2023/08/05 11:48:26;;;;;;;8.15;4.60;;;20.60;99.90;;;;;;4960010;28;20201;-86
2023/08/05 11:50:57;;;;;;;7.47;4.53;;;20.60;99.90;;;;;;4944418;28;20182;-88
2023/08/05 11:53:23;;;;;;;8.13;4.72;;;20.60;99.90;;;;;;4960730;28;20269;-87
2023/08/05 11:55:48;;;;;;;6.90;5.10;;;20.60;99.90;;;;;;4976658;28;20333;-87
2023/08/05 11:58:15;;;;;;;8.60;5.13;;;;;;;;;;4944085;28;20179;-88
2023/08/05 12:00:48;;;;;;;7.70;4.88;;;20.60;99.90;;;;;;4958583;28;20294;-88
2023/08/05 12:03:15;;;;;;;8.05;5.15;;;20.70;99.90;;;;;;4957528;28;20186;-88
2023/08/05 12:05:42;;;;;;;8.63;4.82;;;20.80;99.90;;;;;;4976453;28;20217;-89
2023/08/05 12:08:09;;;;;;;6.63;5.03;;;20.80;99.90;;;;;;4944229;28;20187;-88
2023/08/05 12:10:35;;;;;;;5.18;4.13;;;;;;;;;;4943792;28;20198;-90
2023/08/05 12:13:03;;;;;;;6.03;4.00;;;21.10;99.90;;;;;;4975951;28;20364;-86
2023/08/05 12:15:30;;;;;;;5.43;4.72;;;20.90;99.90;;;;;;4977142;28;20256;-95
2023/08/05 12:18:06;;;;;;;6.18;4.57;;;21.20;99.90;;;;;;4944878;28;20185;-92
2023/08/05 12:20:34;;;;;;;5.20;3.88;;;21.40;99.90;;;;;;4972342;28;20190;-90
2023/08/05 12:23:00;;;;;;;9.32;4.18;;;21.50;99.90;;;;;;4977436;28;20186;-87
2023/08/05 12:25:27;;;;;;;5.30;3.83;;;21.60;99.90;;;;;;4977944;28;20651;-87
2023/08/05 12:27:54;;;;;;;5.35;3.95;;;;;;;;;;4960691;28;20193;-89
2023/08/05 12:30:20;;;;;;;6.53;3.90;;;;;;;;;;4959803;28;20287;-88
2023/08/05 12:32:46;;;;;;;5.05;4.00;;;21.80;99.90;;;;;;4959531;28;20258;-88
2023/08/05 12:35:12;;;;;;;5.13;4.05;;;;;;;;;;4974865;28;20190;-89
2023/08/05 12:37:39;;;;;;;4.80;3.75;;;22.10;99.90;;;;;;4943011;28;20660;-89
2023/08/05 12:40:13;;;;;;;7.53;3.97;;;22.00;99.90;;;;;;4959751;28;20269;-90
2023/08/05 12:42:39;;;;;;;5.07;4.00;;;22.30;99.90;;;;;;4981596;28;20179;-86
2023/08/05 12:45:07;;;;;;;6.57;3.78;;;22.50;99.90;;;;;;4977166;28;20195;-88
2023/08/05 12:47:36;;;;;;;5.05;3.72;;;22.80;99.90;;;;;;4974368;28;20658;-87
2023/08/05 12:50:03;;;;;;;6.47;3.83;;;23.00;99.90;;;;;;4994139;28;20237;-88
2023/08/05 12:52:29;;;;;;;6.43;3.80;;;23.00;99.90;;;;;;4983890;28;20666;-87
2023/08/05 12:54:56;;;;;;;4.03;3.63;;;;;;;;;;4996681;28;20189;-88
2023/08/05 12:57:22;;;;;;;5.07;3.38;;;;;;;;;;4980667;28;20202;-88
2023/08/05 12:59:48;;;;;;;4.72;3.65;;;;;;;;;;4988937;28;20187;-93
2023/08/05 13:02:14;;;;;;;17.23;7.80;;;23.20;99.90;;;;;;4999111;28;20193;-88
2023/08/05 13:04:40;;;;;;;12.20;6.40;;;23.40;99.90;;;;;;5013853;28;20186;-89
2023/08/05 13:07:06;;;;;;;5.55;3.63;;;23.20;99.90;;;;;;4983141;28;20213;-91
2023/08/05 13:09:32;;;;;;;7.00;3.97;;;23.20;99.90;;;;;;4982153;28;20474;-88
2023/08/05 13:12:01;;;;;;;6.35;4.22;;;23.20;99.90;;;;;;4958345;28;20716;-88